createdAt,value
2022-09-28T00:00:42.359Z,7.90
2022-09-28T00:03:10.649Z,7.90
2022-09-28T00:05:39.277Z,7.70
2022-09-28T00:08:09.076Z,7.70
2022-09-28T00:10:46.475Z,7.60
2022-09-28T00:13:16.222Z,7.50
2022-09-28T00:15:46.816Z,7.50
2022-09-28T00:18:13.780Z,7.40
2022-09-28T00:20:51.639Z,7.30
2022-09-28T00:23:29.221Z,7.30
2022-09-28T00:26:03.075Z,7.30
2022-09-28T00:28:33.660Z,7.30
2022-09-28T00:31:03.946Z,7.30
2022-09-28T00:33:40.711Z,7.30
2022-09-28T00:36:09.079Z,7.50
2022-09-28T00:38:41.175Z,7.60
2022-09-28T00:41:12.589Z,7.60
2022-09-28T00:44:19.471Z,7.60
2022-09-28T00:46:47.520Z,7.70
2022-09-28T00:49:41.446Z,7.70
2022-09-28T00:52:13.007Z,7.70
2022-09-28T00:54:58.008Z,7.40
2022-09-28T00:57:27.860Z,7.20
2022-09-28T00:59:58.978Z,7.10
2022-09-28T01:02:27.350Z,7.00
2022-09-28T01:04:58.905Z,6.90
2022-09-28T01:07:36.511Z,6.80
2022-09-28T01:10:07.741Z,6.80
2022-09-28T01:12:43.693Z,6.70
2022-09-28T01:15:13.985Z,6.70
2022-09-28T01:18:07.565Z,6.60
2022-09-28T01:21:14.727Z,6.60
2022-09-28T01:24:33.321Z,6.60
2022-09-28T01:27:59.820Z,6.60
2022-09-28T01:30:29.222Z,6.60
2022-09-28T01:33:07.179Z,6.70
2022-09-28T01:35:43.395Z,6.70
2022-09-28T01:38:21.376Z,6.60
2022-09-28T01:40:49.963Z,6.60
2022-09-28T01:43:30.282Z,6.70
2022-09-28T01:46:14.620Z,6.70
2022-09-28T01:49:13.015Z,6.50
2022-09-28T01:52:05.111Z,6.30
2022-09-28T01:54:53.695Z,6.30
2022-09-28T01:57:59.340Z,6.40
2022-09-28T02:00:27.923Z,6.40
2022-09-28T02:03:00.683Z,6.50
2022-09-28T02:05:33.141Z,6.50
2022-09-28T02:08:16.042Z,6.50
2022-09-28T02:10:53.080Z,6.50
2022-09-28T02:13:46.321Z,6.50
2022-09-28T02:16:16.169Z,6.40
2022-09-28T02:18:45.065Z,6.40
2022-09-28T02:21:17.775Z,6.30
2022-09-28T02:23:53.505Z,6.20
2022-09-28T02:26:25.155Z,6.10
2022-09-28T02:28:52.201Z,6.10
2022-09-28T02:31:19.339Z,6.20
2022-09-28T02:33:48.101Z,6.20
2022-09-28T02:36:15.650Z,6.10
2022-09-28T02:38:43.975Z,6.10
2022-09-28T02:41:23.040Z,6.20
2022-09-28T02:44:14.297Z,6.30
2022-09-28T02:46:59.884Z,6.30
2022-09-28T02:49:26.839Z,6.20
2022-09-28T02:52:18.480Z,6.10
2022-09-28T02:55:11.770Z,6.20
2022-09-28T02:58:01.325Z,6.20
2022-09-28T03:00:32.803Z,6.20
2022-09-28T03:03:04.064Z,6.00
2022-09-28T03:06:09.420Z,5.90
2022-09-28T03:08:49.756Z,5.80
2022-09-28T03:11:40.885Z,5.80
2022-09-28T03:14:08.003Z,5.70
2022-09-28T03:16:35.194Z,5.60
2022-09-28T03:19:02.244Z,5.60
2022-09-28T03:21:29.206Z,5.60
2022-09-28T03:23:56.190Z,5.60
2022-09-28T03:26:23.166Z,5.60
2022-09-28T03:28:50.127Z,5.60
2022-09-28T03:31:17.153Z,5.60
2022-09-28T03:33:44.166Z,5.60
2022-09-28T03:36:11.241Z,5.60
2022-09-28T03:38:38.741Z,5.60
2022-09-28T03:41:05.920Z,5.70
2022-09-28T03:43:32.975Z,5.80
2022-09-28T03:46:01.842Z,5.90
2022-09-28T03:48:32.907Z,5.90
2022-09-28T03:51:03.107Z,5.70
2022-09-28T03:53:30.545Z,5.70
2022-09-28T03:56:06.987Z,5.70
2022-09-28T03:58:34.660Z,5.60
2022-09-28T04:01:03.677Z,5.50
2022-09-28T04:03:31.586Z,5.50
2022-09-28T04:05:58.810Z,5.50
2022-09-28T04:08:25.902Z,5.50
2022-09-28T04:10:55.912Z,5.40
2022-09-28T04:13:22.956Z,5.30
2022-09-28T04:15:55.015Z,5.30
2022-09-28T04:18:22.551Z,5.20
2022-09-28T04:20:59.414Z,5.20
2022-09-28T04:23:28.351Z,5.20
2022-09-28T04:25:55.356Z,5.20
2022-09-28T04:28:40.674Z,5.20
2022-09-28T04:31:13.166Z,5.20
2022-09-28T04:33:40.331Z,5.20
2022-09-28T04:36:07.553Z,5.20
2022-09-28T04:38:51.650Z,5.30
2022-09-28T04:41:20.038Z,5.30
2022-09-28T04:43:48.035Z,5.20
2022-09-28T04:46:15.628Z,5.20
2022-09-28T04:48:42.655Z,5.20
2022-09-28T04:51:09.734Z,5.20
2022-09-28T04:53:36.835Z,5.30
2022-09-28T04:56:06.995Z,5.40
2022-09-28T04:58:35.930Z,5.50
2022-09-28T05:01:06.901Z,5.60
2022-09-28T05:03:34.445Z,5.70
2022-09-28T05:06:01.795Z,5.80
2022-09-28T05:08:29.886Z,5.80
2022-09-28T05:11:05.695Z,5.80
2022-09-28T05:13:35.930Z,5.90
2022-09-28T05:16:05.391Z,6.20
2022-09-28T05:18:33.010Z,6.50
2022-09-28T05:21:01.466Z,6.50
2022-09-28T05:23:28.431Z,6.60
2022-09-28T05:25:55.435Z,6.80
2022-09-28T05:28:29.073Z,7.20
2022-09-28T05:31:01.185Z,7.50
2022-09-28T05:33:29.446Z,7.80
2022-09-28T05:36:00.871Z,8.10
2022-09-28T05:38:28.523Z,8.20
2022-09-28T05:40:55.699Z,8.60
2022-09-28T05:43:23.407Z,8.90
2022-09-28T05:45:54.493Z,9.00
2022-09-28T05:48:23.086Z,9.20
2022-09-28T05:50:53.460Z,9.30
2022-09-28T05:53:20.850Z,9.00
2022-09-28T05:55:47.895Z,8.70
2022-09-28T05:58:15.337Z,8.60
2022-09-28T06:00:42.555Z,8.30
2022-09-28T06:03:12.803Z,8.20
2022-09-28T06:05:40.414Z,7.60
2022-09-28T06:08:10.693Z,7.50
2022-09-28T06:10:38.393Z,7.50
2022-09-28T06:13:06.606Z,7.50
2022-09-28T06:15:35.775Z,7.60
2022-09-28T06:18:09.190Z,7.50
2022-09-28T06:20:41.224Z,7.50
2022-09-28T06:23:10.118Z,7.50
2022-09-28T06:25:37.541Z,7.50
2022-09-28T06:28:15.577Z,7.70
2022-09-28T06:30:43.922Z,7.70
2022-09-28T06:33:13.035Z,7.90
2022-09-28T06:35:40.840Z,8.10
2022-09-28T06:38:08.431Z,8.40
2022-09-28T06:40:36.170Z,8.60
2022-09-28T06:43:12.710Z,8.90
2022-09-28T06:45:39.753Z,9.00
2022-09-28T06:48:07.811Z,9.30
2022-09-28T06:50:37.837Z,9.70
2022-09-28T06:53:07.034Z,9.90
2022-09-28T06:55:34.095Z,10.20
2022-09-28T06:58:06.370Z,10.60
2022-09-28T07:00:36.289Z,10.90
2022-09-28T07:03:05.825Z,11.00
2022-09-28T07:05:36.872Z,11.10
2022-09-28T07:08:07.401Z,11.20
2022-09-28T07:10:34.833Z,11.20
2022-09-28T07:13:05.076Z,11.30
2022-09-28T07:15:33.022Z,11.40
2022-09-28T07:18:03.734Z,11.70
2022-09-28T07:20:48.428Z,12.00
2022-09-28T07:23:20.214Z,12.40
2022-09-28T07:25:50.385Z,12.70
2022-09-28T07:28:17.807Z,13.30
2022-09-28T07:30:44.966Z,13.70
2022-09-28T07:33:14.667Z,14.40
2022-09-28T07:35:44.800Z,15.10
2022-09-28T07:38:11.817Z,15.30
2022-09-28T07:40:57.427Z,15.10
2022-09-28T07:43:24.541Z,16.00
2022-09-28T07:45:53.197Z,16.80
2022-09-28T07:48:21.042Z,18.00
2022-09-28T07:50:53.521Z,19.00
2022-09-28T07:53:22.490Z,19.20
2022-09-28T07:55:53.951Z,19.70
2022-09-28T07:58:21.639Z,20.10
2022-09-28T08:00:50.344Z,19.90
2022-09-28T08:03:19.476Z,19.50
2022-09-28T08:05:47.746Z,19.30
2022-09-28T08:08:15.591Z,18.30
2022-09-28T08:10:46.984Z,17.80
2022-09-28T08:13:15.394Z,17.60
2022-09-28T08:15:42.898Z,17.10
2022-09-28T08:18:10.255Z,16.70
2022-09-28T08:20:56.116Z,16.40
2022-09-28T08:23:23.718Z,16.00
2022-09-28T08:25:54.189Z,15.70
2022-09-28T08:28:23.275Z,15.50
2022-09-28T08:30:50.879Z,15.40
2022-09-28T08:33:21.418Z,15.30
2022-09-28T08:35:56.127Z,15.00
2022-09-28T08:38:23.390Z,15.00
2022-09-28T08:41:15.645Z,15.10
2022-09-28T08:44:04.556Z,15.00
2022-09-28T08:46:42.275Z,15.00
2022-09-28T08:49:42.244Z,14.70
2022-09-28T08:52:37.213Z,14.30
2022-09-28T08:55:30.155Z,14.30
2022-09-28T08:58:00.131Z,14.20
2022-09-28T09:00:40.136Z,14.20
2022-09-28T09:03:12.308Z,14.40
2022-09-28T09:05:48.461Z,14.50
2022-09-28T09:08:43.309Z,14.60
2022-09-28T09:11:30.241Z,14.40
2022-09-28T09:14:09.451Z,14.20
2022-09-28T09:17:00.316Z,14.40
2022-09-28T09:19:35.715Z,14.50
2022-09-28T09:22:18.327Z,14.60
2022-09-28T09:25:18.395Z,14.60
2022-09-28T09:27:52.465Z,14.70
2022-09-28T09:30:29.372Z,14.60
2022-09-28T09:33:12.615Z,14.50
2022-09-28T09:36:22.697Z,14.30
2022-09-28T09:39:08.415Z,14.30
2022-09-28T09:41:59.632Z,14.50
2022-09-28T09:44:36.401Z,14.60
2022-09-28T09:47:08.084Z,14.80
2022-09-28T09:49:43.522Z,14.90
2022-09-28T09:55:14.240Z,15.00
2022-09-28T09:57:44.092Z,14.90
2022-09-28T10:00:14.110Z,14.80
2022-09-28T10:02:43.222Z,14.80
2022-09-28T10:05:13.358Z,14.80
2022-09-28T10:08:05.154Z,14.50
2022-09-28T10:10:38.056Z,13.90
2022-09-28T10:13:05.398Z,13.30
2022-09-28T10:15:35.615Z,13.00
2022-09-28T10:18:11.325Z,12.80
2022-09-28T10:20:41.142Z,13.10
2022-09-28T10:23:25.868Z,13.30
2022-09-28T10:25:58.494Z,13.50
2022-09-28T10:28:40.109Z,13.50
2022-09-28T10:31:36.647Z,13.50
2022-09-28T10:34:27.781Z,13.80
2022-09-28T10:37:06.742Z,13.90
2022-09-28T10:39:45.850Z,14.00
2022-09-28T10:42:19.006Z,14.20
2022-09-28T10:44:56.762Z,14.30
2022-09-28T10:47:26.337Z,14.30
2022-09-28T10:49:55.100Z,14.50
2022-09-28T10:52:43.240Z,14.60
2022-09-28T10:55:24.758Z,14.80
2022-09-28T10:57:52.339Z,14.90
2022-09-28T11:00:34.652Z,14.90
2022-09-28T11:03:03.035Z,14.90
2022-09-28T11:05:30.312Z,14.90
2022-09-28T11:08:00.865Z,14.70
2022-09-28T11:10:30.075Z,14.80
2022-09-28T11:12:57.870Z,14.80
2022-09-28T11:15:31.654Z,14.80
2022-09-28T11:18:25.704Z,14.90
2022-09-28T11:20:52.863Z,15.00
2022-09-28T11:23:30.166Z,14.80
2022-09-28T11:26:05.956Z,14.70
2022-09-28T11:28:37.600Z,14.80
2022-09-28T11:31:08.068Z,14.80
2022-09-28T11:33:47.476Z,14.80
2022-09-28T11:36:14.574Z,14.40
2022-09-28T11:38:47.629Z,14.50
2022-09-28T11:41:41.127Z,14.60
2022-09-28T11:44:36.374Z,14.40
2022-09-28T11:47:28.041Z,14.40
2022-09-28T11:50:24.036Z,14.40
2022-09-28T11:53:01.821Z,14.00
2022-09-28T11:55:54.940Z,13.50
2022-09-28T11:58:34.349Z,13.60
2022-09-28T12:01:40.701Z,13.80
2022-09-28T12:04:55.100Z,13.90
2022-09-28T12:07:30.051Z,13.70
2022-09-28T12:10:35.826Z,13.90
2022-09-28T12:13:14.297Z,14.00
2022-09-28T12:18:47.003Z,14.20
2022-09-28T12:21:28.380Z,14.40
2022-09-28T12:24:02.516Z,14.50
2022-09-28T12:26:46.566Z,14.40
2022-09-28T12:29:20.809Z,14.50
2022-09-28T12:32:12.635Z,14.40
2022-09-28T12:34:42.621Z,14.10
2022-09-28T12:37:22.226Z,14.10
2022-09-28T12:40:05.527Z,14.10
2022-09-28T12:42:57.406Z,14.10
2022-09-28T12:45:43.032Z,14.00
2022-09-28T12:48:36.542Z,13.90
2022-09-28T12:51:27.971Z,14.00
2022-09-28T12:54:40.580Z,14.30
2022-09-28T12:57:36.701Z,14.50
2022-09-28T13:00:10.469Z,14.50
2022-09-28T13:02:56.555Z,14.70
2022-09-28T13:05:23.588Z,14.80
2022-09-28T13:08:05.037Z,14.90
2022-09-28T13:10:55.981Z,15.00
2022-09-28T13:13:35.200Z,15.00
2022-09-28T13:16:06.173Z,15.00
2022-09-28T13:18:57.294Z,15.00
2022-09-28T13:21:38.763Z,15.20
2022-09-28T13:24:31.193Z,15.40
2022-09-28T13:26:59.942Z,15.40
2022-09-28T13:29:27.642Z,15.30
2022-09-28T13:31:57.829Z,15.30
2022-09-28T13:34:31.106Z,15.30
2022-09-28T13:37:11.304Z,15.30
2022-09-28T13:39:58.966Z,15.30
2022-09-28T13:42:25.937Z,15.00
2022-09-28T13:45:13.136Z,14.90
2022-09-28T13:47:58.349Z,15.00
2022-09-28T13:50:54.670Z,15.00
2022-09-28T13:53:39.735Z,14.90
2022-09-28T13:56:31.243Z,15.00
2022-09-28T13:59:22.740Z,15.30
2022-09-28T14:02:06.977Z,15.40
2022-09-28T14:05:04.704Z,15.60
2022-09-28T14:07:34.696Z,15.60
2022-09-28T14:10:17.445Z,15.60
2022-09-28T14:12:46.384Z,15.70
2022-09-28T14:15:37.852Z,15.60
2022-09-28T14:18:24.000Z,15.30
2022-09-28T14:21:25.960Z,15.30
2022-09-28T14:24:21.756Z,15.30
2022-09-28T14:27:15.427Z,15.30
2022-09-28T14:29:42.741Z,15.30
2022-09-28T14:32:09.724Z,15.30
2022-09-28T14:34:48.441Z,15.10
2022-09-28T14:38:01.050Z,14.90
2022-09-28T14:40:51.291Z,14.70
2022-09-28T14:43:32.078Z,14.60
2022-09-28T14:46:25.528Z,14.80
2022-09-28T14:49:17.807Z,14.80
2022-09-28T14:51:47.878Z,14.70
2022-09-28T14:54:26.953Z,14.50
2022-09-28T14:56:54.226Z,14.40
2022-09-28T14:59:43.648Z,14.40
2022-09-28T15:02:32.424Z,14.30
2022-09-28T15:05:14.713Z,14.10
2022-09-28T15:08:00.405Z,14.00
2022-09-28T15:10:35.660Z,13.90
2022-09-28T15:13:24.057Z,14.00
2022-09-28T15:16:13.512Z,13.90
2022-09-28T15:19:06.812Z,13.90
2022-09-28T15:21:40.376Z,13.90
2022-09-28T15:24:28.100Z,13.70
2022-09-28T15:26:56.516Z,13.80
2022-09-28T15:29:23.509Z,13.70
2022-09-28T15:31:54.275Z,13.70
2022-09-28T15:34:51.958Z,13.80
2022-09-28T15:37:23.021Z,13.70
2022-09-28T15:39:51.713Z,13.60
2022-09-28T15:42:19.434Z,13.50
2022-09-28T15:45:25.580Z,13.40
2022-09-28T15:48:26.601Z,13.30
2022-09-28T15:51:11.978Z,13.20
2022-09-28T15:54:25.530Z,13.20
2022-09-28T15:56:55.381Z,13.20
2022-09-28T15:59:35.041Z,13.20
2022-09-28T16:02:13.284Z,13.30
2022-09-28T16:04:43.705Z,13.30
2022-09-28T16:07:10.700Z,13.20
2022-09-28T16:10:13.562Z,13.20
2022-09-28T16:12:42.351Z,13.10
2022-09-28T16:15:23.708Z,13.10
2022-09-28T16:17:57.991Z,13.00
2022-09-28T16:20:32.701Z,13.00
2022-09-28T16:23:06.080Z,13.00
2022-09-28T16:25:37.562Z,12.90
2022-09-28T16:28:05.480Z,12.90
2022-09-28T16:30:34.754Z,12.80
2022-09-28T16:33:25.372Z,12.80
2022-09-28T16:35:52.621Z,12.80
2022-09-28T16:38:20.421Z,12.70
2022-09-28T16:40:54.850Z,12.70
2022-09-28T16:43:31.079Z,12.70
2022-09-28T16:46:05.301Z,12.70
2022-09-28T16:48:36.781Z,12.60
2022-09-28T16:51:03.938Z,12.60
2022-09-28T16:53:49.359Z,12.60
2022-09-28T16:56:16.591Z,12.60
2022-09-28T16:58:44.399Z,12.60
2022-09-28T17:01:13.095Z,12.60
2022-09-28T17:03:46.722Z,12.50
2022-09-28T17:06:15.181Z,12.50
2022-09-28T17:08:43.362Z,12.50
2022-09-28T17:11:23.730Z,12.40
2022-09-28T17:13:56.919Z,12.40
2022-09-28T17:16:50.990Z,12.30
2022-09-28T17:19:27.060Z,12.30
2022-09-28T17:21:54.155Z,12.20
2022-09-28T17:24:21.426Z,12.20
2022-09-28T17:26:51.972Z,12.20
2022-09-28T17:29:19.822Z,12.20
2022-09-28T17:31:48.041Z,12.20
2022-09-28T17:34:16.690Z,12.20
2022-09-28T17:36:44.979Z,12.10
2022-09-28T17:39:13.806Z,12.10
2022-09-28T17:41:41.294Z,12.10
2022-09-28T17:44:09.121Z,12.20
2022-09-28T17:46:38.994Z,12.20
2022-09-28T17:49:08.071Z,12.10
2022-09-28T17:51:39.807Z,12.10
2022-09-28T17:54:08.239Z,12.10
2022-09-28T17:56:36.551Z,12.00
2022-09-28T17:59:10.820Z,12.00
2022-09-28T18:01:39.909Z,12.00
2022-09-28T18:04:08.975Z,12.00
2022-09-28T18:06:37.531Z,11.90
2022-09-28T18:09:05.657Z,11.90
2022-09-28T18:11:33.885Z,11.90
2022-09-28T18:14:01.066Z,11.90
2022-09-28T18:16:29.036Z,11.90
2022-09-28T18:18:56.291Z,11.90
2022-09-28T18:21:23.362Z,11.90
2022-09-28T18:23:50.485Z,11.80
2022-09-28T18:26:19.696Z,11.80
2022-09-28T18:28:47.064Z,11.70
2022-09-28T18:31:15.914Z,11.80
2022-09-28T18:33:52.518Z,11.70
2022-09-28T18:36:19.490Z,11.80
2022-09-28T18:38:46.474Z,11.70
2022-09-28T18:41:16.106Z,11.70
2022-09-28T18:43:50.339Z,11.70
2022-09-28T18:46:18.819Z,11.60
2022-09-28T18:48:47.295Z,11.60
2022-09-28T18:51:15.082Z,11.60
2022-09-28T18:53:42.321Z,11.60
2022-09-28T18:56:14.611Z,11.60
2022-09-28T18:58:42.881Z,11.50
2022-09-28T19:01:32.061Z,11.50
2022-09-28T19:04:04.785Z,11.60
2022-09-28T19:06:32.662Z,11.60
2022-09-28T19:09:00.126Z,11.50
2022-09-28T19:11:27.670Z,11.60
2022-09-28T19:13:55.910Z,11.60
2022-09-28T19:16:28.901Z,11.60
2022-09-28T19:18:57.860Z,11.60
2022-09-28T19:21:26.990Z,11.60
2022-09-28T19:23:55.629Z,11.60
2022-09-28T19:26:27.526Z,11.60
2022-09-28T19:28:57.080Z,11.50
2022-09-28T19:31:25.545Z,11.50
2022-09-28T19:33:52.599Z,11.40
2022-09-28T19:36:23.825Z,11.40
2022-09-28T19:38:55.199Z,11.50
2022-09-28T19:41:46.099Z,11.60
2022-09-28T19:44:25.283Z,11.60
2022-09-28T19:46:53.816Z,11.50
2022-09-28T19:49:22.558Z,11.50
2022-09-28T19:52:12.676Z,11.50
2022-09-28T19:54:41.540Z,11.40
2022-09-28T19:57:09.052Z,11.40
2022-09-28T19:59:37.727Z,11.40
2022-09-28T20:02:08.855Z,11.40
2022-09-28T20:04:35.915Z,11.50
2022-09-28T20:07:04.581Z,11.50
2022-09-28T20:09:32.685Z,11.40
2022-09-28T20:11:59.780Z,11.40
2022-09-28T20:14:32.886Z,11.40
2022-09-28T20:17:03.507Z,11.40
2022-09-28T20:19:30.585Z,11.30
2022-09-28T20:21:59.519Z,11.30
2022-09-28T20:24:28.824Z,11.30
2022-09-28T20:26:56.112Z,11.20
2022-09-28T20:29:24.387Z,11.20
2022-09-28T20:31:52.105Z,11.20
2022-09-28T20:34:19.490Z,11.20
2022-09-28T20:36:46.559Z,11.20
2022-09-28T20:39:13.562Z,11.20
2022-09-28T20:41:41.359Z,11.20
2022-09-28T20:44:09.971Z,11.30
2022-09-28T20:46:38.191Z,11.20
2022-09-28T20:49:05.805Z,11.20
2022-09-28T20:51:33.074Z,11.20
2022-09-28T20:54:00.562Z,11.20
2022-09-28T20:56:37.795Z,11.20
2022-09-28T20:59:10.365Z,11.10
2022-09-28T21:01:37.440Z,11.00
2022-09-28T21:04:06.706Z,11.10
2022-09-28T21:06:35.898Z,11.00
2022-09-28T21:09:04.585Z,11.10
2022-09-28T21:11:34.466Z,11.10
2022-09-28T21:14:03.921Z,11.20
2022-09-28T21:16:33.387Z,11.20
2022-09-28T21:19:00.587Z,11.20
2022-09-28T21:21:27.719Z,11.20
2022-09-28T21:23:58.832Z,11.20
2022-09-28T21:26:28.780Z,11.30
2022-09-28T21:28:56.531Z,11.30
2022-09-28T21:31:28.776Z,11.20
2022-09-28T21:33:58.890Z,11.20
2022-09-28T21:36:27.423Z,11.30
2022-09-28T21:39:07.003Z,11.20
2022-09-28T21:41:37.600Z,11.20
2022-09-28T21:44:18.873Z,11.20
2022-09-28T21:46:47.201Z,11.20
2022-09-28T21:49:24.200Z,11.20
2022-09-28T21:51:53.202Z,11.20
2022-09-28T21:54:22.115Z,11.20
2022-09-28T21:56:50.381Z,11.20
2022-09-28T21:59:25.858Z,11.20
2022-09-28T22:01:56.308Z,11.20
2022-09-28T22:04:24.399Z,11.30
2022-09-28T22:06:53.743Z,11.20
2022-09-28T22:09:24.118Z,11.20
2022-09-28T22:11:52.661Z,11.20
2022-09-28T22:14:21.385Z,11.20
2022-09-28T22:16:52.839Z,11.10
2022-09-28T22:19:30.281Z,11.10
2022-09-28T22:22:00.696Z,11.10
2022-09-28T22:24:29.800Z,11.10
2022-09-28T22:26:59.336Z,11.10
2022-09-28T22:29:28.308Z,11.10
2022-09-28T22:32:03.225Z,11.20
2022-09-28T22:34:42.831Z,11.20
2022-09-28T22:37:09.799Z,11.20
2022-09-28T22:39:38.028Z,11.20
2022-09-28T22:42:11.603Z,11.20
2022-09-28T22:44:48.038Z,11.30
2022-09-28T22:47:16.475Z,11.30
2022-09-28T22:49:52.151Z,11.30
2022-09-28T22:52:20.502Z,11.30
2022-09-28T22:54:49.211Z,11.30
2022-09-28T22:57:18.701Z,11.30
2022-09-28T22:59:47.142Z,11.30
2022-09-28T23:02:18.416Z,11.30
2022-09-28T23:04:49.697Z,11.30
2022-09-28T23:07:20.061Z,11.30
2022-09-28T23:09:57.056Z,11.30
2022-09-28T23:12:25.521Z,11.30
2022-09-28T23:14:53.769Z,11.30
2022-09-28T23:17:20.817Z,11.30
2022-09-28T23:19:57.936Z,11.30
2022-09-28T23:22:28.201Z,11.30
2022-09-28T23:24:57.795Z,11.40
2022-09-28T23:27:28.346Z,11.40
2022-09-28T23:29:57.881Z,11.40
2022-09-28T23:32:31.130Z,11.40
2022-09-28T23:35:01.229Z,11.40
2022-09-28T23:37:31.039Z,11.40
2022-09-28T23:40:09.544Z,11.40
2022-09-28T23:42:40.022Z,11.40
2022-09-28T23:45:07.480Z,11.30
2022-09-28T23:47:38.817Z,11.40
2022-09-28T23:50:09.161Z,11.40
2022-09-28T23:52:39.880Z,11.40
2022-09-28T23:55:10.536Z,11.50
2022-09-28T23:57:40.885Z,11.50
